Pinebluff, North Carolina
Current Conditions -  °F | °C
As of 8:56 AM on Friday 19 Dec 2014 (Local Time) from KHFF Reporting Station
Clear Clear  
Wind Chill: 38°   Ceiling: Unl
Heat Index: 38°   Visibility: 10mi
Dew Point: 34°   Wind: 1mph
Humidity: 86%   Direction: NA
Pressure: 30.2"   Gusts: NA
Location:  35.11°N, 79.47°W
Report Text: KHFF 191356Z AUTO VRB01KT 10SM CLR 03/01 A3020 RMK AO2 SLP232 T00310009
Loading
Personal Weather Stations






























Interactive Weather Map New forecast layout! Learn more

10-Day Weather Forecast

Advertisements
Track Severe Weather on mobile